createdAt,value
2019-03-21T00:01:42.927Z,3.60
2019-03-21T00:04:14.004Z,3.50
2019-03-21T00:06:42.830Z,3.30
2019-03-21T00:09:14.306Z,3.00
2019-03-21T00:12:06.563Z,2.80
2019-03-21T00:14:38.145Z,2.60
2019-03-21T00:17:18.743Z,2.50
2019-03-21T00:19:47.627Z,2.50
2019-03-21T00:22:16.171Z,2.60
2019-03-21T00:24:44.962Z,2.60
2019-03-21T00:27:13.526Z,2.70
2019-03-21T00:29:42.083Z,2.70
2019-03-21T00:32:10.639Z,2.70
2019-03-21T00:34:39.189Z,2.70
2019-03-21T00:37:07.772Z,2.60
2019-03-21T00:39:36.646Z,2.60
2019-03-21T00:42:05.288Z,2.70
2019-03-21T00:44:33.827Z,2.80
2019-03-21T00:47:02.590Z,2.90
2019-03-21T00:49:31.141Z,3.00
2019-03-21T00:51:59.702Z,3.10
2019-03-21T00:54:28.267Z,3.10
2019-03-21T00:56:56.923Z,3.20
2019-03-21T00:59:25.738Z,3.30
2019-03-21T01:01:54.352Z,3.30
2019-03-21T01:04:25.563Z,3.30
2019-03-21T01:06:54.108Z,3.20
2019-03-21T01:09:22.671Z,3.20
2019-03-21T01:11:51.519Z,3.20
2019-03-21T01:14:29.449Z,3.20
2019-03-21T01:16:50.352Z,3.10
2019-03-21T01:19:18.918Z,3.10
2019-03-21T01:21:47.467Z,3.10
2019-03-21T01:24:16.059Z,3.00
2019-03-21T01:26:44.604Z,2.90
2019-03-21T01:29:13.151Z,2.90
2019-03-21T01:31:41.791Z,3.00
2019-03-21T01:34:10.342Z,3.10
2019-03-21T01:36:38.923Z,3.10
2019-03-21T01:39:07.464Z,3.10
2019-03-21T01:41:36.034Z,3.10
2019-03-21T01:44:05.059Z,3.10
2019-03-21T01:46:33.631Z,3.10
2019-03-21T01:49:02.189Z,3.10
2019-03-21T01:51:31.094Z,3.10
2019-03-21T01:53:59.866Z,3.20
2019-03-21T01:56:30.243Z,3.20
2019-03-21T01:58:58.805Z,3.30
2019-03-21T02:01:27.297Z,3.30
2019-03-21T02:03:55.959Z,3.40
2019-03-21T02:06:24.503Z,3.40
2019-03-21T02:08:53.211Z,3.30
2019-03-21T02:11:21.767Z,3.40
2019-03-21T02:13:50.759Z,3.40
2019-03-21T02:16:19.310Z,3.40
2019-03-21T02:18:47.990Z,3.50
2019-03-21T02:21:16.541Z,3.50
2019-03-21T02:23:45.110Z,3.50
2019-03-21T02:26:13.660Z,3.50
2019-03-21T02:28:42.202Z,3.30
2019-03-21T02:31:10.798Z,3.10
2019-03-21T02:33:44.704Z,2.70
2019-03-21T02:36:14.285Z,2.60
2019-03-21T02:38:43.167Z,2.70
2019-03-21T02:41:14.185Z,2.80
2019-03-21T02:43:42.799Z,2.90
2019-03-21T02:46:11.364Z,3.00
2019-03-21T02:48:39.907Z,3.00
2019-03-21T02:51:08.855Z,3.10
2019-03-21T02:53:37.436Z,3.10
2019-03-21T02:56:11.734Z,3.20
2019-03-21T02:58:40.393Z,3.30
2019-03-21T03:01:08.901Z,3.40
2019-03-21T03:03:37.735Z,3.30
2019-03-21T03:06:06.567Z,3.30
2019-03-21T03:08:35.135Z,3.30
2019-03-21T03:11:10.484Z,3.30
2019-03-21T03:13:37.469Z,3.30
2019-03-21T03:16:06.078Z,3.20
2019-03-21T03:18:34.669Z,3.10
2019-03-21T03:21:03.228Z,3.10
2019-03-21T03:23:32.110Z,3.00
2019-03-21T03:26:00.659Z,3.00
2019-03-21T03:28:34.695Z,2.90
2019-03-21T03:31:03.296Z,3.00
2019-03-21T03:33:31.828Z,2.90
2019-03-21T03:36:00.363Z,2.80
2019-03-21T03:38:28.935Z,2.90
2019-03-21T03:41:02.581Z,2.90
2019-03-21T03:43:31.157Z,3.00
2019-03-21T03:46:00.012Z,3.00
2019-03-21T03:48:28.807Z,3.00
2019-03-21T03:50:57.428Z,3.00
2019-03-21T03:53:27.364Z,3.10
2019-03-21T03:55:55.944Z,3.10
2019-03-21T03:58:29.813Z,3.10
2019-03-21T04:00:58.735Z,3.10
2019-03-21T04:03:28.415Z,3.20
2019-03-21T04:05:57.138Z,3.30
2019-03-21T04:08:25.731Z,3.30
2019-03-21T04:10:56.243Z,3.30
2019-03-21T04:13:24.914Z,3.40
2019-03-21T04:15:54.089Z,3.30
2019-03-21T04:18:24.810Z,3.40
2019-03-21T04:20:56.842Z,3.40
2019-03-21T04:23:25.414Z,3.40
2019-03-21T04:26:12.115Z,3.50
2019-03-21T04:28:41.619Z,3.40
2019-03-21T04:31:10.180Z,3.40
2019-03-21T04:33:38.747Z,3.50
2019-03-21T04:36:07.303Z,3.40
2019-03-21T04:38:35.859Z,3.50
2019-03-21T04:41:04.505Z,3.50
2019-03-21T04:43:33.143Z,3.50
2019-03-21T04:46:03.591Z,3.50
2019-03-21T04:48:31.932Z,3.50
2019-03-21T04:51:00.482Z,3.40
2019-03-21T04:53:29.051Z,3.40
2019-03-21T04:55:57.600Z,3.30
2019-03-21T04:58:26.184Z,3.20
2019-03-21T05:00:56.590Z,3.20
2019-03-21T05:03:27.463Z,3.20
2019-03-21T05:05:56.110Z,3.20
2019-03-21T05:08:24.665Z,3.20
2019-03-21T05:10:53.225Z,3.20
2019-03-21T05:13:21.779Z,3.20
2019-03-21T05:15:54.471Z,3.20
2019-03-21T05:18:28.863Z,3.20
2019-03-21T05:20:58.078Z,3.30
2019-03-21T05:23:26.623Z,3.30
2019-03-21T05:25:55.201Z,3.30
2019-03-21T05:28:23.743Z,3.40
2019-03-21T05:31:21.285Z,3.40
2019-03-21T05:33:49.823Z,3.40
2019-03-21T05:36:18.343Z,3.40
2019-03-21T05:38:46.886Z,3.50
2019-03-21T05:41:15.527Z,3.50
2019-03-21T05:43:50.519Z,3.50
2019-03-21T05:46:26.443Z,3.60
2019-03-21T05:48:50.222Z,3.60
2019-03-21T05:51:18.831Z,3.60
2019-03-21T05:53:47.447Z,3.60
2019-03-21T05:56:16.172Z,3.60
2019-03-21T05:58:44.739Z,3.60
2019-03-21T06:01:14.108Z,3.60
2019-03-21T06:03:51.276Z,3.60
2019-03-21T06:06:43.931Z,3.60
2019-03-21T06:09:21.044Z,3.60
2019-03-21T06:11:52.690Z,3.60
2019-03-21T06:14:21.249Z,3.80
2019-03-21T06:16:50.063Z,4.20
2019-03-21T06:19:24.661Z,4.60
2019-03-21T06:21:56.438Z,5.10
2019-03-21T06:24:36.763Z,5.60
2019-03-21T06:27:17.159Z,5.90
2019-03-21T06:29:45.751Z,6.10
2019-03-21T06:32:14.307Z,6.30
2019-03-21T06:34:42.965Z,6.80
2019-03-21T06:37:11.458Z,7.20
2019-03-21T06:39:40.099Z,7.70
2019-03-21T06:42:08.651Z,8.30
2019-03-21T06:44:37.208Z,8.30
2019-03-21T06:47:05.791Z,8.80
2019-03-21T06:49:34.334Z,9.30
2019-03-21T06:52:02.904Z,10.40
2019-03-21T06:54:31.458Z,10.50
2019-03-21T06:57:02.420Z,10.70
2019-03-21T06:59:30.288Z,10.30
2019-03-21T07:01:58.868Z,10.00
2019-03-21T07:04:27.482Z,10.40
2019-03-21T07:07:07.605Z,10.60
2019-03-21T07:09:29.268Z,9.90
2019-03-21T07:11:57.987Z,10.80
2019-03-21T07:14:26.543Z,11.80
2019-03-21T07:17:00.371Z,12.00
2019-03-21T07:19:25.695Z,12.70
2019-03-21T07:21:54.259Z,13.80
2019-03-21T07:24:22.827Z,14.60
2019-03-21T07:26:51.383Z,15.30
2019-03-21T07:29:19.954Z,15.80
2019-03-21T07:31:48.515Z,16.60
2019-03-21T07:34:17.106Z,17.80
2019-03-21T07:36:45.967Z,18.50
2019-03-21T07:39:14.571Z,19.50
2019-03-21T07:41:43.119Z,18.90
2019-03-21T07:44:11.692Z,19.00
2019-03-21T07:46:40.247Z,19.40
2019-03-21T07:49:08.887Z,19.20
2019-03-21T07:51:37.446Z,18.20
2019-03-21T07:54:06.039Z,17.50
2019-03-21T07:56:34.592Z,16.90
2019-03-21T07:59:03.280Z,16.70
2019-03-21T08:01:31.831Z,16.90
2019-03-21T08:04:02.870Z,17.80
2019-03-21T08:06:30.602Z,17.20
2019-03-21T08:08:59.231Z,15.30
2019-03-21T08:11:27.795Z,15.00
2019-03-21T08:13:56.342Z,14.70
2019-03-21T08:16:25.292Z,14.40
2019-03-21T08:18:54.159Z,15.00
2019-03-21T08:21:22.732Z,13.70
2019-03-21T08:23:51.279Z,13.90
2019-03-21T08:26:19.857Z,13.90
2019-03-21T08:28:48.473Z,13.80
2019-03-21T08:31:17.180Z,13.90
2019-03-21T08:33:45.801Z,14.00
2019-03-21T08:36:14.554Z,14.00
2019-03-21T08:38:43.171Z,14.40
2019-03-21T08:41:11.788Z,14.40
2019-03-21T08:43:40.356Z,14.00
2019-03-21T08:46:08.991Z,15.20
2019-03-21T08:48:37.715Z,15.00
2019-03-21T08:51:08.627Z,14.90
2019-03-21T08:53:36.562Z,15.20
2019-03-21T08:56:05.323Z,15.90
2019-03-21T08:58:33.896Z,16.30
2019-03-21T09:01:02.452Z,16.20
2019-03-21T09:03:31.023Z,14.90
2019-03-21T09:05:59.638Z,14.90
2019-03-21T09:08:28.206Z,15.70
2019-03-21T09:10:56.789Z,16.00
2019-03-21T09:13:25.464Z,16.10
2019-03-21T09:15:54.081Z,15.90
2019-03-21T09:18:22.607Z,15.50
2019-03-21T09:20:51.159Z,16.40
2019-03-21T09:23:19.745Z,16.10
2019-03-21T09:25:48.386Z,16.10
2019-03-21T09:28:17.299Z,16.40
2019-03-21T09:30:45.847Z,17.30
2019-03-21T09:33:14.433Z,17.40
2019-03-21T09:35:42.980Z,16.40
2019-03-21T09:38:11.883Z,15.90
2019-03-21T09:40:40.445Z,15.90
2019-03-21T09:43:09.080Z,16.50
2019-03-21T09:45:37.643Z,18.00
2019-03-21T09:48:06.587Z,17.30
2019-03-21T09:50:35.157Z,16.20
2019-03-21T09:53:03.710Z,15.20
2019-03-21T09:55:32.295Z,15.60
2019-03-21T09:58:00.859Z,15.50
2019-03-21T10:00:34.031Z,16.30
2019-03-21T10:03:02.652Z,15.90
2019-03-21T10:05:31.224Z,17.90
2019-03-21T10:07:59.844Z,18.20
2019-03-21T10:10:34.903Z,19.90
2019-03-21T10:13:04.083Z,19.50
2019-03-21T10:15:32.970Z,19.40
2019-03-21T10:18:01.674Z,18.20
2019-03-21T10:20:30.203Z,17.10
2019-03-21T10:22:59.155Z,15.90
2019-03-21T10:25:27.783Z,16.60
2019-03-21T10:27:56.352Z,17.60
2019-03-21T10:30:33.043Z,18.10
2019-03-21T10:33:01.856Z,17.50
2019-03-21T10:35:32.570Z,16.50
2019-03-21T10:38:00.619Z,16.80
2019-03-21T10:40:29.462Z,17.70
2019-03-21T10:42:58.118Z,18.50
2019-03-21T10:45:26.667Z,18.90
2019-03-21T10:47:55.223Z,18.40
2019-03-21T10:50:41.061Z,18.50
2019-03-21T10:53:10.235Z,18.70
2019-03-21T10:55:39.042Z,17.80
2019-03-21T10:58:08.531Z,17.40
2019-03-21T11:00:37.239Z,17.10
2019-03-21T11:03:06.119Z,16.60
2019-03-21T11:05:34.960Z,16.60
2019-03-21T11:08:03.684Z,16.90
2019-03-21T11:10:32.327Z,16.10
2019-03-21T11:13:00.886Z,14.90
2019-03-21T11:15:29.469Z,14.70
2019-03-21T11:17:58.134Z,14.70
2019-03-21T11:20:37.995Z,14.50
2019-03-21T11:23:06.976Z,14.30
2019-03-21T11:25:35.744Z,14.20
2019-03-21T11:28:04.771Z,14.30
2019-03-21T11:30:38.095Z,13.90
2019-03-21T11:33:06.903Z,13.70
2019-03-21T11:35:35.736Z,13.50
2019-03-21T11:38:05.736Z,13.40
2019-03-21T11:40:34.566Z,13.60
2019-03-21T11:43:04.460Z,13.70
2019-03-21T11:45:32.991Z,14.10
2019-03-21T11:48:01.646Z,14.10
2019-03-21T11:50:30.205Z,14.10
2019-03-21T11:52:58.811Z,14.30
2019-03-21T11:55:27.673Z,14.30
2019-03-21T11:57:56.636Z,14.30
2019-03-21T12:00:25.270Z,14.10
2019-03-21T12:02:54.276Z,14.00
2019-03-21T12:05:22.797Z,13.60
2019-03-21T12:07:52.546Z,13.10
2019-03-21T12:10:21.119Z,13.20
2019-03-21T12:12:49.970Z,13.20
2019-03-21T12:15:19.106Z,13.20
2019-03-21T12:17:47.651Z,13.10
2019-03-21T12:20:31.527Z,13.00
2019-03-21T12:23:00.076Z,13.20
2019-03-21T12:25:28.699Z,13.20
2019-03-21T12:27:57.511Z,13.10
2019-03-21T12:30:31.973Z,12.90
2019-03-21T12:33:00.547Z,12.90
2019-03-21T12:35:29.360Z,12.90
2019-03-21T12:37:58.038Z,12.90
2019-03-21T12:40:26.755Z,12.90
2019-03-21T12:42:55.499Z,12.90
2019-03-21T12:45:24.045Z,12.90
2019-03-21T12:47:52.619Z,12.90
2019-03-21T12:50:21.167Z,12.90
2019-03-21T12:52:49.770Z,13.00
2019-03-21T12:55:18.319Z,13.00
2019-03-21T12:57:47.189Z,12.90
2019-03-21T13:00:17.516Z,12.90
2019-03-21T13:02:46.280Z,13.00
2019-03-21T13:05:26.888Z,13.00
2019-03-21T13:07:55.434Z,13.00
2019-03-21T13:10:24.008Z,13.00
2019-03-21T13:12:52.596Z,13.00
2019-03-21T13:15:29.477Z,13.10
2019-03-21T13:17:51.628Z,13.40
2019-03-21T13:20:20.200Z,13.30
2019-03-21T13:22:52.759Z,13.10
2019-03-21T13:25:19.031Z,13.20
2019-03-21T13:27:47.595Z,13.20
2019-03-21T13:30:16.479Z,13.10
2019-03-21T13:32:46.977Z,13.20
2019-03-21T13:35:15.754Z,13.20
2019-03-21T13:37:44.370Z,13.30
2019-03-21T13:40:14.455Z,13.50
2019-03-21T13:42:43.031Z,13.50
2019-03-21T13:45:11.651Z,13.20
2019-03-21T13:47:40.159Z,13.20
2019-03-21T13:50:09.347Z,13.20
2019-03-21T13:52:37.919Z,13.20
2019-03-21T13:55:08.678Z,13.10
2019-03-21T13:57:37.259Z,13.10
2019-03-21T14:00:08.415Z,13.20
2019-03-21T14:02:36.974Z,13.20
2019-03-21T14:05:08.864Z,13.20
2019-03-21T14:07:37.410Z,13.20
2019-03-21T14:10:10.692Z,13.00
2019-03-21T14:12:39.201Z,13.10
2019-03-21T14:15:10.607Z,13.00
2019-03-21T14:17:39.155Z,13.10
2019-03-21T14:20:09.670Z,13.20
2019-03-21T14:22:38.928Z,13.30
2019-03-21T14:25:08.367Z,13.30
2019-03-21T14:27:37.468Z,13.40
2019-03-21T14:30:09.355Z,13.30
2019-03-21T14:32:37.975Z,13.40
2019-03-21T14:35:08.171Z,13.40
2019-03-21T14:37:36.816Z,13.50
2019-03-21T14:40:15.570Z,13.60
2019-03-21T14:42:44.419Z,13.70
2019-03-21T14:45:15.414Z,13.80
2019-03-21T14:47:44.324Z,13.70
2019-03-21T14:50:17.318Z,13.60
2019-03-21T14:52:46.058Z,13.60
2019-03-21T14:55:15.148Z,13.60
2019-03-21T14:57:44.103Z,13.70
2019-03-21T15:00:18.649Z,13.70
2019-03-21T15:02:47.236Z,13.50
2019-03-21T15:05:16.026Z,13.60
2019-03-21T15:07:44.629Z,13.60
2019-03-21T15:10:15.760Z,13.70
2019-03-21T15:12:44.473Z,13.60
2019-03-21T15:15:14.458Z,13.60
2019-03-21T15:17:43.177Z,13.70
2019-03-21T15:20:16.113Z,13.70
2019-03-21T15:22:44.733Z,13.70
2019-03-21T15:25:14.116Z,13.70
2019-03-21T15:27:42.736Z,13.70
2019-03-21T15:30:18.803Z,13.70
2019-03-21T15:32:47.614Z,13.60
2019-03-21T15:35:17.595Z,13.60
2019-03-21T15:37:46.223Z,13.60
2019-03-21T15:40:15.641Z,13.60
2019-03-21T15:42:44.270Z,13.60
2019-03-21T15:45:22.808Z,13.60
2019-03-21T15:47:47.766Z,13.60
2019-03-21T15:50:38.075Z,13.70
2019-03-21T15:53:07.300Z,13.60
2019-03-21T15:55:35.911Z,13.50
2019-03-21T15:58:04.611Z,13.50
2019-03-21T16:00:38.823Z,13.50
2019-03-21T16:03:09.351Z,13.50
2019-03-21T16:05:38.433Z,13.40
2019-03-21T16:08:09.109Z,13.40
2019-03-21T16:10:38.368Z,13.40
2019-03-21T16:13:07.152Z,13.40
2019-03-21T16:15:35.849Z,13.40
2019-03-21T16:18:05.059Z,13.50
2019-03-21T16:20:33.905Z,13.50
2019-03-21T16:23:02.796Z,13.40
2019-03-21T16:25:31.523Z,13.40
2019-03-21T16:28:00.250Z,13.40
2019-03-21T16:30:29.100Z,13.30
2019-03-21T16:32:57.674Z,13.30
2019-03-21T16:35:26.252Z,13.30
2019-03-21T16:37:54.926Z,13.20
2019-03-21T16:40:23.483Z,13.20
2019-03-21T16:42:52.107Z,13.20
2019-03-21T16:45:21.372Z,13.10
2019-03-21T16:47:50.161Z,13.10
2019-03-21T16:50:18.732Z,13.10
2019-03-21T16:52:47.285Z,13.00
2019-03-21T16:55:15.924Z,12.90
2019-03-21T16:57:44.489Z,12.90
2019-03-21T17:00:17.545Z,12.90
2019-03-21T17:02:45.759Z,12.80
2019-03-21T17:05:14.409Z,12.70
2019-03-21T17:07:42.959Z,12.60
2019-03-21T17:10:15.868Z,12.50
2019-03-21T17:12:44.397Z,12.40
2019-03-21T17:15:13.742Z,12.40
2019-03-21T17:17:42.336Z,12.40
2019-03-21T17:20:13.976Z,12.20
2019-03-21T17:22:42.556Z,12.20
2019-03-21T17:25:11.748Z,12.10
2019-03-21T17:27:40.329Z,12.10
2019-03-21T17:30:14.260Z,12.00
2019-03-21T17:32:42.972Z,12.00
2019-03-21T17:35:11.771Z,11.90
2019-03-21T17:37:41.361Z,11.80
2019-03-21T17:40:16.161Z,11.70
2019-03-21T17:42:44.911Z,11.60
2019-03-21T17:45:18.166Z,11.60
2019-03-21T17:47:48.132Z,11.50
2019-03-21T17:50:19.833Z,11.50
2019-03-21T17:52:48.418Z,11.40
2019-03-21T17:55:17.250Z,11.40
2019-03-21T17:57:45.925Z,11.20
2019-03-21T18:00:18.373Z,11.20
2019-03-21T18:02:46.992Z,11.10
2019-03-21T18:05:15.643Z,11.10
2019-03-21T18:07:44.270Z,11.10
2019-03-21T18:10:34.012Z,11.00
2019-03-21T18:13:03.671Z,10.90
2019-03-21T18:15:32.649Z,10.90
2019-03-21T18:18:01.443Z,10.90
2019-03-21T18:20:30.034Z,10.90
2019-03-21T18:22:58.887Z,10.90
2019-03-21T18:25:28.424Z,10.80
2019-03-21T18:27:57.039Z,10.80
2019-03-21T18:30:25.626Z,10.80
2019-03-21T18:32:54.247Z,10.70
2019-03-21T18:35:22.862Z,10.60
2019-03-21T18:37:51.442Z,10.60
2019-03-21T18:40:19.932Z,10.60
2019-03-21T18:42:48.656Z,10.70
2019-03-21T18:45:18.075Z,10.70
2019-03-21T18:47:46.668Z,10.60
2019-03-21T18:50:16.546Z,10.70
2019-03-21T18:52:45.180Z,10.60
2019-03-21T18:55:14.567Z,10.60
2019-03-21T18:57:43.183Z,10.50
2019-03-21T19:00:15.279Z,10.30
2019-03-21T19:02:44.116Z,10.30
2019-03-21T19:05:13.330Z,10.40
2019-03-21T19:07:41.884Z,10.20
2019-03-21T19:10:13.553Z,10.10
2019-03-21T19:12:42.107Z,9.90
2019-03-21T19:15:15.631Z,9.90
2019-03-21T19:17:44.520Z,9.70
2019-03-21T19:20:17.807Z,9.70
2019-03-21T19:22:46.959Z,9.50
2019-03-21T19:25:18.760Z,9.30
2019-03-21T19:27:47.131Z,8.90
2019-03-21T19:30:20.023Z,8.50
2019-03-21T19:32:48.682Z,8.40
2019-03-21T19:35:17.329Z,8.20
2019-03-21T19:37:46.014Z,8.10
2019-03-21T19:40:16.192Z,8.00
2019-03-21T19:42:44.773Z,8.00
2019-03-21T19:45:14.977Z,8.00
2019-03-21T19:47:43.545Z,7.90
2019-03-21T19:50:14.708Z,7.90
2019-03-21T19:52:43.312Z,7.80
2019-03-21T19:55:12.729Z,7.80
2019-03-21T19:57:41.259Z,7.70
2019-03-21T20:00:19.481Z,7.70
2019-03-21T20:02:48.104Z,7.60
2019-03-21T20:05:17.157Z,7.60
2019-03-21T20:07:45.739Z,7.70
2019-03-21T20:10:21.416Z,7.90
2019-03-21T20:12:50.247Z,8.20
2019-03-21T20:15:19.586Z,8.70
2019-03-21T20:17:48.282Z,9.20
2019-03-21T20:20:18.546Z,9.40
2019-03-21T20:22:47.255Z,9.40
2019-03-21T20:25:16.079Z,9.30
2019-03-21T20:27:44.941Z,9.30
2019-03-21T20:30:21.279Z,9.40
2019-03-21T20:32:49.896Z,9.40
2019-03-21T20:35:19.074Z,9.30
2019-03-21T20:37:47.918Z,9.10
2019-03-21T20:40:18.354Z,9.00
2019-03-21T20:42:47.077Z,8.90
2019-03-21T20:45:17.232Z,8.70
2019-03-21T20:47:46.231Z,8.60
2019-03-21T20:50:15.041Z,8.60
2019-03-21T20:52:43.607Z,8.60
2019-03-21T20:55:12.224Z,8.60
2019-03-21T20:57:40.791Z,8.50
2019-03-21T21:00:15.412Z,8.50
2019-03-21T21:02:43.994Z,8.50
2019-03-21T21:05:12.879Z,8.50
2019-03-21T21:07:41.448Z,8.40
2019-03-21T21:10:12.023Z,8.40
2019-03-21T21:12:40.566Z,8.30
2019-03-21T21:15:11.483Z,8.30
2019-03-21T21:17:42.948Z,8.30
2019-03-21T21:20:13.468Z,8.20
2019-03-21T21:22:42.187Z,8.20
2019-03-21T21:25:10.899Z,8.10
2019-03-21T21:27:48.763Z,8.10
2019-03-21T21:30:15.572Z,8.10
2019-03-21T21:32:44.383Z,8.00
2019-03-21T21:35:13.499Z,8.00
2019-03-21T21:37:42.043Z,7.90
2019-03-21T21:40:11.731Z,7.80
2019-03-21T21:42:40.372Z,7.80
2019-03-21T21:45:11.258Z,7.50
2019-03-21T21:47:39.842Z,7.40
2019-03-21T21:50:11.178Z,7.40
2019-03-21T21:52:42.262Z,7.40
2019-03-21T21:55:10.668Z,7.40
2019-03-21T21:57:39.429Z,7.40
2019-03-21T22:00:19.951Z,7.50
2019-03-21T22:02:48.532Z,7.50
2019-03-21T22:05:17.746Z,7.40
2019-03-21T22:07:46.415Z,7.30
2019-03-21T22:10:15.204Z,7.20
2019-03-21T22:12:43.878Z,6.80
2019-03-21T22:15:17.216Z,6.80
2019-03-21T22:17:45.839Z,6.80
2019-03-21T22:20:17.889Z,6.90
2019-03-21T22:22:46.438Z,6.90
2019-03-21T22:25:15.254Z,6.90
2019-03-21T22:27:44.099Z,7.00
2019-03-21T22:30:15.613Z,6.90
2019-03-21T22:32:44.279Z,7.00
2019-03-21T22:35:13.189Z,7.00
2019-03-21T22:37:41.739Z,7.10
2019-03-21T22:40:12.260Z,7.10
2019-03-21T22:42:41.087Z,7.00
2019-03-21T22:45:14.203Z,6.90
2019-03-21T22:47:42.774Z,6.90
2019-03-21T22:50:14.899Z,6.80
2019-03-21T22:52:44.151Z,6.80
2019-03-21T22:55:13.043Z,6.70
2019-03-21T22:57:41.886Z,6.50
2019-03-21T23:00:23.273Z,6.50
2019-03-21T23:02:51.934Z,6.50
2019-03-21T23:05:20.724Z,6.40
2019-03-21T23:07:49.288Z,6.30
2019-03-21T23:10:18.024Z,6.40
2019-03-21T23:12:46.595Z,6.50
2019-03-21T23:15:15.410Z,6.50
2019-03-21T23:17:44.427Z,6.50
2019-03-21T23:20:14.911Z,6.50
2019-03-21T23:22:43.570Z,6.50
2019-03-21T23:25:16.559Z,6.50
2019-03-21T23:27:45.282Z,6.50
2019-03-21T23:30:16.430Z,6.60
2019-03-21T23:32:45.415Z,6.60
2019-03-21T23:35:14.434Z,6.50
2019-03-21T23:37:43.131Z,6.50
2019-03-21T23:40:14.008Z,6.50
2019-03-21T23:42:42.551Z,6.50
2019-03-21T23:45:12.711Z,6.40
2019-03-21T23:47:41.347Z,6.50
2019-03-21T23:50:12.219Z,6.50
2019-03-21T23:52:40.758Z,6.40
2019-03-21T23:55:11.079Z,6.40
2019-03-21T23:57:39.698Z,6.30
